sensor_id;sensor_type;location;lat;lon;timestamp;P1;durP1;ratioP1;P2;durP2;ratioP2
14060;SDS011;7105;43.616;1.434;2022-08-02T00:02:00;4.85;;;3.38;;
14060;SDS011;7105;43.616;1.434;2022-08-02T00:04:25;6.97;;;2.97;;
14060;SDS011;7105;43.616;1.434;2022-08-02T00:06:51;6.00;;;4.22;;
14060;SDS011;7105;43.616;1.434;2022-08-02T00:09:17;6.72;;;3.75;;
14060;SDS011;7105;43.616;1.434;2022-08-02T00:11:43;4.70;;;3.47;;
14060;SDS011;7105;43.616;1.434;2022-08-02T00:14:09;4.90;;;3.15;;
14060;SDS011;7105;43.616;1.434;2022-08-02T00:16:34;5.38;;;3.28;;
14060;SDS011;7105;43.616;1.434;2022-08-02T00:19:00;3.35;;;3.00;;
14060;SDS011;7105;43.616;1.434;2022-08-02T00:21:26;5.10;;;3.50;;
14060;SDS011;7105;43.616;1.434;2022-08-02T00:23:51;4.32;;;3.13;;
14060;SDS011;7105;43.616;1.434;2022-08-02T00:26:17;3.90;;;3.10;;
14060;SDS011;7105;43.616;1.434;2022-08-02T00:28:43;4.88;;;2.83;;
14060;SDS011;7105;43.616;1.434;2022-08-02T00:31:08;5.72;;;2.90;;
14060;SDS011;7105;43.616;1.434;2022-08-02T00:33:34;3.40;;;2.63;;
14060;SDS011;7105;43.616;1.434;2022-08-02T00:36:00;3.33;;;3.00;;
14060;SDS011;7105;43.616;1.434;2022-08-02T00:38:25;4.18;;;2.72;;
14060;SDS011;7105;43.616;1.434;2022-08-02T00:40:51;3.30;;;2.85;;
14060;SDS011;7105;43.616;1.434;2022-08-02T00:43:18;3.28;;;2.47;;
14060;SDS011;7105;43.616;1.434;2022-08-02T00:45:43;5.57;;;3.25;;
14060;SDS011;7105;43.616;1.434;2022-08-02T00:48:11;4.72;;;2.80;;
14060;SDS011;7105;43.616;1.434;2022-08-02T00:50:38;4.05;;;3.13;;
14060;SDS011;7105;43.616;1.434;2022-08-02T00:53:05;6.25;;;3.13;;
14060;SDS011;7105;43.616;1.434;2022-08-02T00:55:33;4.70;;;3.10;;
14060;SDS011;7105;43.616;1.434;2022-08-02T00:57:59;4.30;;;2.90;;
14060;SDS011;7105;43.616;1.434;2022-08-02T01:00:26;9.25;;;3.60;;
14060;SDS011;7105;43.616;1.434;2022-08-02T01:02:52;5.47;;;3.40;;
14060;SDS011;7105;43.616;1.434;2022-08-02T01:05:18;4.95;;;3.28;;
14060;SDS011;7105;43.616;1.434;2022-08-02T01:07:43;5.30;;;3.45;;
14060;SDS011;7105;43.616;1.434;2022-08-02T01:10:09;3.60;;;3.30;;
14060;SDS011;7105;43.616;1.434;2022-08-02T01:12:35;5.78;;;4.25;;
14060;SDS011;7105;43.616;1.434;2022-08-02T01:15:03;3.45;;;3.00;;
14060;SDS011;7105;43.616;1.434;2022-08-02T01:17:34;3.25;;;2.95;;
14060;SDS011;7105;43.616;1.434;2022-08-02T01:23:04;3.75;;;3.10;;
14060;SDS011;7105;43.616;1.434;2022-08-02T01:26:27;4.75;;;3.10;;
14060;SDS011;7105;43.616;1.434;2022-08-02T01:31:13;4.00;;;3.15;;
14060;SDS011;7105;43.616;1.434;2022-08-02T01:34:05;3.40;;;3.10;;
14060;SDS011;7105;43.616;1.434;2022-08-02T01:36:34;3.58;;;3.28;;
14060;SDS011;7105;43.616;1.434;2022-08-02T01:39:04;4.80;;;3.47;;
14060;SDS011;7105;43.616;1.434;2022-08-02T01:41:32;5.38;;;3.42;;
14060;SDS011;7105;43.616;1.434;2022-08-02T01:43:59;5.35;;;3.22;;
14060;SDS011;7105;43.616;1.434;2022-08-02T01:46:27;7.07;;;3.38;;
14060;SDS011;7105;43.616;1.434;2022-08-02T01:48:55;5.07;;;4.20;;
14060;SDS011;7105;43.616;1.434;2022-08-02T01:51:23;5.47;;;3.63;;
14060;SDS011;7105;43.616;1.434;2022-08-02T01:54:10;5.07;;;3.70;;
14060;SDS011;7105;43.616;1.434;2022-08-02T01:56:39;7.65;;;4.20;;
14060;SDS011;7105;43.616;1.434;2022-08-02T01:59:07;6.15;;;3.70;;
14060;SDS011;7105;43.616;1.434;2022-08-02T02:01:38;6.05;;;4.10;;
14060;SDS011;7105;43.616;1.434;2022-08-02T02:04:05;4.65;;;3.85;;
14060;SDS011;7105;43.616;1.434;2022-08-02T02:06:32;7.07;;;4.00;;
14060;SDS011;7105;43.616;1.434;2022-08-02T02:09:00;4.20;;;3.80;;
14060;SDS011;7105;43.616;1.434;2022-08-02T02:11:28;5.30;;;3.65;;
14060;SDS011;7105;43.616;1.434;2022-08-02T02:13:59;5.22;;;4.22;;
14060;SDS011;7105;43.616;1.434;2022-08-02T02:16:27;4.32;;;3.92;;
14060;SDS011;7105;43.616;1.434;2022-08-02T02:18:54;6.30;;;4.40;;
14060;SDS011;7105;43.616;1.434;2022-08-02T02:21:20;4.78;;;4.28;;
14060;SDS011;7105;43.616;1.434;2022-08-02T02:23:46;4.57;;;4.18;;
14060;SDS011;7105;43.616;1.434;2022-08-02T02:26:12;4.70;;;4.20;;
14060;SDS011;7105;43.616;1.434;2022-08-02T02:28:40;5.88;;;4.53;;
14060;SDS011;7105;43.616;1.434;2022-08-02T02:31:11;5.07;;;4.28;;
14060;SDS011;7105;43.616;1.434;2022-08-02T02:33:49;4.68;;;4.28;;
14060;SDS011;7105;43.616;1.434;2022-08-02T02:36:20;5.95;;;4.40;;
14060;SDS011;7105;43.616;1.434;2022-08-02T02:38:46;5.28;;;4.53;;
14060;SDS011;7105;43.616;1.434;2022-08-02T02:41:14;5.95;;;4.40;;
14060;SDS011;7105;43.616;1.434;2022-08-02T02:43:42;7.60;;;4.60;;
14060;SDS011;7105;43.616;1.434;2022-08-02T02:46:10;5.13;;;4.15;;
14060;SDS011;7105;43.616;1.434;2022-08-02T02:48:37;5.03;;;4.53;;
14060;SDS011;7105;43.616;1.434;2022-08-02T02:51:03;5.15;;;4.13;;
14060;SDS011;7105;43.616;1.434;2022-08-02T02:53:30;8.13;;;4.80;;
14060;SDS011;7105;43.616;1.434;2022-08-02T02:55:57;4.80;;;4.28;;
14060;SDS011;7105;43.616;1.434;2022-08-02T02:58:23;5.03;;;4.13;;
14060;SDS011;7105;43.616;1.434;2022-08-02T03:00:49;5.53;;;4.45;;
14060;SDS011;7105;43.616;1.434;2022-08-02T03:03:34;5.22;;;4.32;;
14060;SDS011;7105;43.616;1.434;2022-08-02T03:06:01;5.60;;;4.70;;
14060;SDS011;7105;43.616;1.434;2022-08-02T03:08:27;7.05;;;4.70;;
14060;SDS011;7105;43.616;1.434;2022-08-02T03:10:53;5.10;;;4.70;;
14060;SDS011;7105;43.616;1.434;2022-08-02T03:13:20;6.55;;;4.38;;
14060;SDS011;7105;43.616;1.434;2022-08-02T03:15:45;6.35;;;4.88;;
14060;SDS011;7105;43.616;1.434;2022-08-02T03:20:58;6.63;;;4.75;;
14060;SDS011;7105;43.616;1.434;2022-08-02T03:23:27;8.00;;;4.40;;
14060;SDS011;7105;43.616;1.434;2022-08-02T03:25:54;5.60;;;4.40;;
14060;SDS011;7105;43.616;1.434;2022-08-02T03:28:20;6.32;;;4.50;;
14060;SDS011;7105;43.616;1.434;2022-08-02T03:30:46;6.10;;;4.63;;
14060;SDS011;7105;43.616;1.434;2022-08-02T03:33:12;6.55;;;5.07;;
14060;SDS011;7105;43.616;1.434;2022-08-02T03:35:39;4.85;;;4.30;;
14060;SDS011;7105;43.616;1.434;2022-08-02T03:38:05;5.07;;;4.55;;
14060;SDS011;7105;43.616;1.434;2022-08-02T03:40:32;6.35;;;4.47;;
14060;SDS011;7105;43.616;1.434;2022-08-02T03:42:58;7.22;;;4.28;;
14060;SDS011;7105;43.616;1.434;2022-08-02T03:45:26;5.03;;;4.63;;
14060;SDS011;7105;43.616;1.434;2022-08-02T03:47:52;6.70;;;4.78;;
14060;SDS011;7105;43.616;1.434;2022-08-02T03:50:19;9.07;;;4.40;;
14060;SDS011;7105;43.616;1.434;2022-08-02T03:52:47;6.80;;;4.30;;
14060;SDS011;7105;43.616;1.434;2022-08-02T03:55:13;5.07;;;4.25;;
14060;SDS011;7105;43.616;1.434;2022-08-02T03:57:42;5.93;;;4.13;;
14060;SDS011;7105;43.616;1.434;2022-08-02T04:00:08;5.32;;;4.22;;
14060;SDS011;7105;43.616;1.434;2022-08-02T04:02:37;6.50;;;4.28;;
14060;SDS011;7105;43.616;1.434;2022-08-02T04:05:03;5.10;;;4.60;;
14060;SDS011;7105;43.616;1.434;2022-08-02T04:07:29;7.03;;;4.75;;
14060;SDS011;7105;43.616;1.434;2022-08-02T04:09:54;4.95;;;4.40;;
14060;SDS011;7105;43.616;1.434;2022-08-02T04:12:20;4.68;;;4.28;;
14060;SDS011;7105;43.616;1.434;2022-08-02T04:14:47;5.75;;;4.50;;
14060;SDS011;7105;43.616;1.434;2022-08-02T04:17:12;6.63;;;4.53;;
14060;SDS011;7105;43.616;1.434;2022-08-02T04:19:46;5.65;;;4.22;;
14060;SDS011;7105;43.616;1.434;2022-08-02T04:22:18;6.90;;;4.55;;
14060;SDS011;7105;43.616;1.434;2022-08-02T04:25:00;6.72;;;4.30;;
14060;SDS011;7105;43.616;1.434;2022-08-02T04:27:30;5.63;;;4.25;;
14060;SDS011;7105;43.616;1.434;2022-08-02T04:29:56;5.30;;;4.55;;
14060;SDS011;7105;43.616;1.434;2022-08-02T04:32:24;5.85;;;3.83;;
14060;SDS011;7105;43.616;1.434;2022-08-02T04:34:49;6.22;;;4.05;;
14060;SDS011;7105;43.616;1.434;2022-08-02T04:37:15;5.07;;;4.30;;
14060;SDS011;7105;43.616;1.434;2022-08-02T04:39:42;6.90;;;4.43;;
14060;SDS011;7105;43.616;1.434;2022-08-02T04:42:08;9.13;;;4.00;;
14060;SDS011;7105;43.616;1.434;2022-08-02T04:44:34;5.72;;;4.30;;
14060;SDS011;7105;43.616;1.434;2022-08-02T04:47:00;4.32;;;3.85;;
14060;SDS011;7105;43.616;1.434;2022-08-02T04:49:30;5.63;;;4.35;;
14060;SDS011;7105;43.616;1.434;2022-08-02T04:51:55;4.70;;;4.20;;
14060;SDS011;7105;43.616;1.434;2022-08-02T04:54:21;8.15;;;4.47;;
14060;SDS011;7105;43.616;1.434;2022-08-02T04:56:49;5.80;;;4.35;;
14060;SDS011;7105;43.616;1.434;2022-08-02T04:59:15;7.35;;;3.83;;
14060;SDS011;7105;43.616;1.434;2022-08-02T05:01:41;7.88;;;4.30;;
14060;SDS011;7105;43.616;1.434;2022-08-02T05:04:06;6.03;;;4.18;;
14060;SDS011;7105;43.616;1.434;2022-08-02T05:06:32;5.55;;;4.28;;
14060;SDS011;7105;43.616;1.434;2022-08-02T05:08:58;7.57;;;4.18;;
14060;SDS011;7105;43.616;1.434;2022-08-02T05:11:24;4.88;;;4.35;;
14060;SDS011;7105;43.616;1.434;2022-08-02T05:13:49;5.18;;;4.22;;
14060;SDS011;7105;43.616;1.434;2022-08-02T05:16:15;6.20;;;3.80;;
14060;SDS011;7105;43.616;1.434;2022-08-02T05:18:41;6.90;;;4.18;;
14060;SDS011;7105;43.616;1.434;2022-08-02T05:21:07;5.63;;;3.88;;
14060;SDS011;7105;43.616;1.434;2022-08-02T05:23:33;7.03;;;3.78;;
14060;SDS011;7105;43.616;1.434;2022-08-02T05:25:59;5.22;;;3.88;;
14060;SDS011;7105;43.616;1.434;2022-08-02T05:28:24;5.53;;;3.85;;
14060;SDS011;7105;43.616;1.434;2022-08-02T05:30:50;6.30;;;3.78;;
14060;SDS011;7105;43.616;1.434;2022-08-02T05:33:16;5.25;;;3.80;;
14060;SDS011;7105;43.616;1.434;2022-08-02T05:35:42;4.65;;;4.03;;
14060;SDS011;7105;43.616;1.434;2022-08-02T05:38:07;9.65;;;3.58;;
14060;SDS011;7105;43.616;1.434;2022-08-02T05:40:33;4.03;;;3.58;;
14060;SDS011;7105;43.616;1.434;2022-08-02T05:42:59;5.68;;;3.80;;
14060;SDS011;7105;43.616;1.434;2022-08-02T05:45:25;3.80;;;3.45;;
14060;SDS011;7105;43.616;1.434;2022-08-02T05:47:51;5.38;;;3.42;;
14060;SDS011;7105;43.616;1.434;2022-08-02T05:50:17;6.80;;;4.03;;
14060;SDS011;7105;43.616;1.434;2022-08-02T05:52:50;5.35;;;3.33;;
14060;SDS011;7105;43.616;1.434;2022-08-02T05:55:39;5.22;;;3.75;;
14060;SDS011;7105;43.616;1.434;2022-08-02T05:58:34;6.75;;;3.70;;
14060;SDS011;7105;43.616;1.434;2022-08-02T06:01:05;7.65;;;3.25;;
14060;SDS011;7105;43.616;1.434;2022-08-02T06:03:38;5.32;;;3.30;;
14060;SDS011;7105;43.616;1.434;2022-08-02T06:06:14;9.02;;;4.00;;
14060;SDS011;7105;43.616;1.434;2022-08-02T06:08:43;7.43;;;3.60;;
14060;SDS011;7105;43.616;1.434;2022-08-02T06:11:12;5.72;;;3.58;;
14060;SDS011;7105;43.616;1.434;2022-08-02T06:13:40;6.55;;;3.50;;
14060;SDS011;7105;43.616;1.434;2022-08-02T06:16:06;5.00;;;3.58;;
14060;SDS011;7105;43.616;1.434;2022-08-02T06:18:32;8.52;;;3.78;;
14060;SDS011;7105;43.616;1.434;2022-08-02T06:21:03;5.25;;;3.53;;
14060;SDS011;7105;43.616;1.434;2022-08-02T06:23:30;5.32;;;3.72;;
14060;SDS011;7105;43.616;1.434;2022-08-02T06:25:57;4.45;;;3.55;;
14060;SDS011;7105;43.616;1.434;2022-08-02T06:28:24;7.03;;;3.30;;
14060;SDS011;7105;43.616;1.434;2022-08-02T06:30:50;4.80;;;3.20;;
14060;SDS011;7105;43.616;1.434;2022-08-02T06:33:17;3.72;;;2.97;;
14060;SDS011;7105;43.616;1.434;2022-08-02T06:38:31;3.30;;;3.00;;
14060;SDS011;7105;43.616;1.434;2022-08-02T06:41:02;4.85;;;3.00;;
14060;SDS011;7105;43.616;1.434;2022-08-02T06:46:17;4.45;;;3.42;;
14060;SDS011;7105;43.616;1.434;2022-08-02T06:48:44;4.80;;;3.40;;
14060;SDS011;7105;43.616;1.434;2022-08-02T06:51:10;4.25;;;3.28;;
14060;SDS011;7105;43.616;1.434;2022-08-02T06:53:37;4.95;;;2.97;;
14060;SDS011;7105;43.616;1.434;2022-08-02T06:56:03;3.75;;;2.88;;
14060;SDS011;7105;43.616;1.434;2022-08-02T06:58:30;4.30;;;3.05;;
14060;SDS011;7105;43.616;1.434;2022-08-02T07:00:55;4.72;;;2.97;;
14060;SDS011;7105;43.616;1.434;2022-08-02T07:03:21;4.97;;;3.00;;
14060;SDS011;7105;43.616;1.434;2022-08-02T07:05:49;4.90;;;3.17;;
14060;SDS011;7105;43.616;1.434;2022-08-02T07:08:16;3.83;;;2.88;;
14060;SDS011;7105;43.616;1.434;2022-08-02T07:10:43;4.05;;;2.90;;
14060;SDS011;7105;43.616;1.434;2022-08-02T07:13:08;5.57;;;3.15;;
14060;SDS011;7105;43.616;1.434;2022-08-02T07:15:35;5.35;;;2.80;;
14060;SDS011;7105;43.616;1.434;2022-08-02T07:18:02;6.75;;;3.03;;
14060;SDS011;7105;43.616;1.434;2022-08-02T07:20:28;4.53;;;3.20;;
14060;SDS011;7105;43.616;1.434;2022-08-02T07:22:53;5.43;;;3.22;;
14060;SDS011;7105;43.616;1.434;2022-08-02T07:25:19;5.10;;;3.35;;
14060;SDS011;7105;43.616;1.434;2022-08-02T07:27:45;7.53;;;3.38;;
14060;SDS011;7105;43.616;1.434;2022-08-02T07:30:11;6.35;;;3.75;;
14060;SDS011;7105;43.616;1.434;2022-08-02T07:32:36;8.43;;;3.47;;
14060;SDS011;7105;43.616;1.434;2022-08-02T07:35:02;4.55;;;2.85;;
14060;SDS011;7105;43.616;1.434;2022-08-02T07:37:30;5.05;;;3.20;;
14060;SDS011;7105;43.616;1.434;2022-08-02T07:39:57;7.53;;;2.90;;
14060;SDS011;7105;43.616;1.434;2022-08-02T07:42:22;10.02;;;3.35;;
14060;SDS011;7105;43.616;1.434;2022-08-02T07:44:49;5.07;;;2.63;;
14060;SDS011;7105;43.616;1.434;2022-08-02T07:47:15;6.90;;;3.25;;
14060;SDS011;7105;43.616;1.434;2022-08-02T07:49:41;5.65;;;3.10;;
14060;SDS011;7105;43.616;1.434;2022-08-02T07:52:07;7.05;;;3.10;;
14060;SDS011;7105;43.616;1.434;2022-08-02T07:54:33;6.07;;;3.10;;
14060;SDS011;7105;43.616;1.434;2022-08-02T07:56:59;4.45;;;2.97;;
14060;SDS011;7105;43.616;1.434;2022-08-02T07:59:25;4.50;;;3.88;;
14060;SDS011;7105;43.616;1.434;2022-08-02T08:01:51;5.43;;;3.58;;
14060;SDS011;7105;43.616;1.434;2022-08-02T08:04:17;5.53;;;3.33;;
14060;SDS011;7105;43.616;1.434;2022-08-02T08:06:44;4.53;;;3.38;;
14060;SDS011;7105;43.616;1.434;2022-08-02T08:09:13;5.22;;;3.33;;
14060;SDS011;7105;43.616;1.434;2022-08-02T08:11:39;5.80;;;3.22;;
14060;SDS011;7105;43.616;1.434;2022-08-02T08:14:06;4.63;;;3.17;;
14060;SDS011;7105;43.616;1.434;2022-08-02T08:16:31;9.05;;;3.22;;
14060;SDS011;7105;43.616;1.434;2022-08-02T08:18:58;5.85;;;3.10;;
14060;SDS011;7105;43.616;1.434;2022-08-02T08:21:23;4.38;;;2.70;;
14060;SDS011;7105;43.616;1.434;2022-08-02T08:23:49;4.97;;;3.22;;
14060;SDS011;7105;43.616;1.434;2022-08-02T08:26:15;3.92;;;2.97;;
14060;SDS011;7105;43.616;1.434;2022-08-02T08:28:41;6.82;;;4.40;;
14060;SDS011;7105;43.616;1.434;2022-08-02T08:31:06;6.70;;;5.18;;
14060;SDS011;7105;43.616;1.434;2022-08-02T08:33:32;6.10;;;3.50;;
14060;SDS011;7105;43.616;1.434;2022-08-02T08:35:58;4.53;;;3.30;;
14060;SDS011;7105;43.616;1.434;2022-08-02T08:38:23;8.57;;;3.30;;
14060;SDS011;7105;43.616;1.434;2022-08-02T08:40:49;3.58;;;3.00;;
14060;SDS011;7105;43.616;1.434;2022-08-02T08:43:15;4.72;;;2.88;;
14060;SDS011;7105;43.616;1.434;2022-08-02T08:45:42;7.22;;;3.28;;
14060;SDS011;7105;43.616;1.434;2022-08-02T08:48:10;6.18;;;2.97;;
14060;SDS011;7105;43.616;1.434;2022-08-02T08:50:38;6.32;;;3.03;;
14060;SDS011;7105;43.616;1.434;2022-08-02T08:53:26;4.22;;;3.00;;
14060;SDS011;7105;43.616;1.434;2022-08-02T08:55:55;3.92;;;2.90;;
14060;SDS011;7105;43.616;1.434;2022-08-02T08:58:22;3.15;;;2.70;;
14060;SDS011;7105;43.616;1.434;2022-08-02T09:00:48;5.20;;;3.42;;
14060;SDS011;7105;43.616;1.434;2022-08-02T09:03:14;7.65;;;3.35;;
14060;SDS011;7105;43.616;1.434;2022-08-02T09:05:40;6.75;;;3.03;;
14060;SDS011;7105;43.616;1.434;2022-08-02T09:08:07;5.13;;;3.45;;
14060;SDS011;7105;43.616;1.434;2022-08-02T09:10:40;6.78;;;3.65;;
14060;SDS011;7105;43.616;1.434;2022-08-02T09:15:42;6.55;;;3.40;;
14060;SDS011;7105;43.616;1.434;2022-08-02T09:18:09;13.10;;;3.47;;
14060;SDS011;7105;43.616;1.434;2022-08-02T09:20:58;6.03;;;3.55;;
14060;SDS011;7105;43.616;1.434;2022-08-02T09:23:23;5.10;;;3.55;;
14060;SDS011;7105;43.616;1.434;2022-08-02T09:25:58;8.63;;;3.17;;
14060;SDS011;7105;43.616;1.434;2022-08-02T09:28:26;10.35;;;3.42;;
14060;SDS011;7105;43.616;1.434;2022-08-02T09:30:57;7.35;;;3.25;;
14060;SDS011;7105;43.616;1.434;2022-08-02T09:33:33;7.60;;;3.80;;
14060;SDS011;7105;43.616;1.434;2022-08-02T09:36:06;6.88;;;3.85;;
14060;SDS011;7105;43.616;1.434;2022-08-02T09:38:37;7.30;;;3.67;;
14060;SDS011;7105;43.616;1.434;2022-08-02T09:41:04;6.75;;;4.03;;
14060;SDS011;7105;43.616;1.434;2022-08-02T09:43:43;4.35;;;3.30;;
14060;SDS011;7105;43.616;1.434;2022-08-02T09:46:16;5.50;;;3.88;;
14060;SDS011;7105;43.616;1.434;2022-08-02T09:48:48;6.72;;;4.00;;
14060;SDS011;7105;43.616;1.434;2022-08-02T09:51:34;5.75;;;3.80;;
14060;SDS011;7105;43.616;1.434;2022-08-02T09:54:06;4.82;;;3.45;;
14060;SDS011;7105;43.616;1.434;2022-08-02T09:56:39;9.10;;;3.47;;
14060;SDS011;7105;43.616;1.434;2022-08-02T09:59:09;5.78;;;3.25;;
14060;SDS011;7105;43.616;1.434;2022-08-02T10:01:36;6.50;;;3.60;;
14060;SDS011;7105;43.616;1.434;2022-08-02T10:04:04;4.95;;;3.50;;
14060;SDS011;7105;43.616;1.434;2022-08-02T10:06:32;5.72;;;2.95;;
14060;SDS011;7105;43.616;1.434;2022-08-02T10:08:58;6.47;;;3.35;;
14060;SDS011;7105;43.616;1.434;2022-08-02T10:11:25;4.15;;;3.25;;
14060;SDS011;7105;43.616;1.434;2022-08-02T10:13:52;4.72;;;3.15;;
14060;SDS011;7105;43.616;1.434;2022-08-02T10:16:19;5.18;;;3.53;;
14060;SDS011;7105;43.616;1.434;2022-08-02T10:18:52;3.70;;;3.17;;
14060;SDS011;7105;43.616;1.434;2022-08-02T10:21:26;7.53;;;3.92;;
14060;SDS011;7105;43.616;1.434;2022-08-02T10:24:12;6.45;;;3.22;;
14060;SDS011;7105;43.616;1.434;2022-08-02T10:26:41;6.05;;;3.17;;
14060;SDS011;7105;43.616;1.434;2022-08-02T10:29:08;4.63;;;3.15;;
14060;SDS011;7105;43.616;1.434;2022-08-02T10:31:36;6.45;;;3.20;;
14060;SDS011;7105;43.616;1.434;2022-08-02T10:34:08;6.45;;;3.53;;
14060;SDS011;7105;43.616;1.434;2022-08-02T10:36:36;4.25;;;2.72;;
14060;SDS011;7105;43.616;1.434;2022-08-02T10:39:04;4.05;;;2.50;;
14060;SDS011;7105;43.616;1.434;2022-08-02T10:44:24;3.53;;;2.38;;
14060;SDS011;7105;43.616;1.434;2022-08-02T10:52:27;2.90;;;2.40;;
14060;SDS011;7105;43.616;1.434;2022-08-02T10:55:01;2.47;;;1.95;;
14060;SDS011;7105;43.616;1.434;2022-08-02T10:57:34;3.05;;;2.10;;
14060;SDS011;7105;43.616;1.434;2022-08-02T11:02:42;3.83;;;2.53;;
14060;SDS011;7105;43.616;1.434;2022-08-02T11:05:17;4.55;;;2.45;;
14060;SDS011;7105;43.616;1.434;2022-08-02T11:07:54;2.97;;;2.70;;
14060;SDS011;7105;43.616;1.434;2022-08-02T11:15:52;5.72;;;2.47;;
14060;SDS011;7105;43.616;1.434;2022-08-02T11:18:22;3.17;;;2.08;;
14060;SDS011;7105;43.616;1.434;2022-08-02T11:21:27;6.07;;;2.25;;
14060;SDS011;7105;43.616;1.434;2022-08-02T11:24:22;5.65;;;2.10;;
14060;SDS011;7105;43.616;1.434;2022-08-02T11:26:53;2.58;;;1.48;;
14060;SDS011;7105;43.616;1.434;2022-08-02T11:29:21;2.20;;;1.67;;
14060;SDS011;7105;43.616;1.434;2022-08-02T11:31:55;4.55;;;1.40;;
14060;SDS011;7105;43.616;1.434;2022-08-02T11:34:22;2.90;;;1.77;;
14060;SDS011;7105;43.616;1.434;2022-08-02T11:36:51;2.90;;;1.83;;
14060;SDS011;7105;43.616;1.434;2022-08-02T11:39:18;2.97;;;1.83;;
14060;SDS011;7105;43.616;1.434;2022-08-02T11:41:52;2.53;;;2.00;;
14060;SDS011;7105;43.616;1.434;2022-08-02T11:44:21;7.57;;;2.72;;
14060;SDS011;7105;43.616;1.434;2022-08-02T11:46:59;6.65;;;2.03;;
14060;SDS011;7105;43.616;1.434;2022-08-02T11:49:26;3.60;;;2.00;;
14060;SDS011;7105;43.616;1.434;2022-08-02T11:54:38;3.42;;;2.15;;
14060;SDS011;7105;43.616;1.434;2022-08-02T11:59:42;4.63;;;2.10;;
14060;SDS011;7105;43.616;1.434;2022-08-02T12:02:09;1.92;;;1.80;;
14060;SDS011;7105;43.616;1.434;2022-08-02T12:04:36;3.03;;;1.80;;
14060;SDS011;7105;43.616;1.434;2022-08-02T12:07:03;3.17;;;1.67;;
14060;SDS011;7105;43.616;1.434;2022-08-02T12:09:30;3.17;;;2.00;;
14060;SDS011;7105;43.616;1.434;2022-08-02T12:11:57;3.45;;;1.80;;
14060;SDS011;7105;43.616;1.434;2022-08-02T12:14:24;2.85;;;1.90;;
14060;SDS011;7105;43.616;1.434;2022-08-02T12:16:51;3.47;;;2.10;;
14060;SDS011;7105;43.616;1.434;2022-08-02T12:19:36;3.45;;;2.20;;
14060;SDS011;7105;43.616;1.434;2022-08-02T12:22:06;4.05;;;2.42;;
14060;SDS011;7105;43.616;1.434;2022-08-02T12:24:40;3.42;;;2.10;;
14060;SDS011;7105;43.616;1.434;2022-08-02T12:27:07;5.72;;;2.40;;
14060;SDS011;7105;43.616;1.434;2022-08-02T12:29:37;3.92;;;2.00;;
14060;SDS011;7105;43.616;1.434;2022-08-02T12:32:04;4.55;;;2.47;;
14060;SDS011;7105;43.616;1.434;2022-08-02T12:34:31;5.65;;;2.05;;
14060;SDS011;7105;43.616;1.434;2022-08-02T12:36:59;2.15;;;1.90;;
14060;SDS011;7105;43.616;1.434;2022-08-02T12:39:39;3.03;;;1.92;;
14060;SDS011;7105;43.616;1.434;2022-08-02T12:42:11;4.43;;;2.10;;
14060;SDS011;7105;43.616;1.434;2022-08-02T12:44:48;5.22;;;2.25;;
14060;SDS011;7105;43.616;1.434;2022-08-02T12:47:23;4.82;;;2.25;;
14060;SDS011;7105;43.616;1.434;2022-08-02T12:52:37;3.10;;;2.10;;
14060;SDS011;7105;43.616;1.434;2022-08-02T12:55:21;2.42;;;1.70;;
14060;SDS011;7105;43.616;1.434;2022-08-02T12:57:53;3.38;;;1.95;;
14060;SDS011;7105;43.616;1.434;2022-08-02T13:00:24;2.20;;;1.50;;
14060;SDS011;7105;43.616;1.434;2022-08-02T13:02:52;6.40;;;1.48;;
14060;SDS011;7105;43.616;1.434;2022-08-02T13:05:18;2.75;;;1.40;;
14060;SDS011;7105;43.616;1.434;2022-08-02T13:07:44;4.47;;;1.30;;
14060;SDS011;7105;43.616;1.434;2022-08-02T13:10:09;3.05;;;1.30;;
14060;SDS011;7105;43.616;1.434;2022-08-02T13:12:35;1.98;;;1.10;;
14060;SDS011;7105;43.616;1.434;2022-08-02T13:15:03;2.25;;;1.20;;
14060;SDS011;7105;43.616;1.434;2022-08-02T13:17:31;1.90;;;1.50;;
14060;SDS011;7105;43.616;1.434;2022-08-02T13:19:57;1.80;;;1.30;;
14060;SDS011;7105;43.616;1.434;2022-08-02T13:22:23;1.98;;;1.20;;
14060;SDS011;7105;43.616;1.434;2022-08-02T13:24:48;2.10;;;1.00;;
14060;SDS011;7105;43.616;1.434;2022-08-02T13:27:15;2.42;;;1.17;;
14060;SDS011;7105;43.616;1.434;2022-08-02T13:29:41;2.17;;;1.13;;
14060;SDS011;7105;43.616;1.434;2022-08-02T13:32:07;2.05;;;1.20;;
14060;SDS011;7105;43.616;1.434;2022-08-02T13:34:33;1.85;;;0.90;;
14060;SDS011;7105;43.616;1.434;2022-08-02T13:36:59;1.77;;;1.02;;
14060;SDS011;7105;43.616;1.434;2022-08-02T13:39:25;1.50;;;1.13;;
14060;SDS011;7105;43.616;1.434;2022-08-02T13:41:51;1.88;;;1.05;;
14060;SDS011;7105;43.616;1.434;2022-08-02T13:44:18;4.07;;;0.95;;
14060;SDS011;7105;43.616;1.434;2022-08-02T13:46:43;2.08;;;1.10;;
14060;SDS011;7105;43.616;1.434;2022-08-02T13:49:09;1.85;;;1.10;;
14060;SDS011;7105;43.616;1.434;2022-08-02T13:51:35;1.30;;;1.20;;
14060;SDS011;7105;43.616;1.434;2022-08-02T13:54:00;1.23;;;0.95;;
14060;SDS011;7105;43.616;1.434;2022-08-02T13:56:26;1.77;;;1.00;;
14060;SDS011;7105;43.616;1.434;2022-08-02T13:58:52;1.13;;;0.90;;
14060;SDS011;7105;43.616;1.434;2022-08-02T14:01:18;2.00;;;0.80;;
14060;SDS011;7105;43.616;1.434;2022-08-02T14:03:43;0.95;;;0.90;;
14060;SDS011;7105;43.616;1.434;2022-08-02T14:06:10;1.52;;;0.82;;
14060;SDS011;7105;43.616;1.434;2022-08-02T14:08:36;0.90;;;0.85;;
14060;SDS011;7105;43.616;1.434;2022-08-02T14:11:03;2.13;;;0.80;;
14060;SDS011;7105;43.616;1.434;2022-08-02T14:13:29;1.23;;;0.90;;
14060;SDS011;7105;43.616;1.434;2022-08-02T14:15:54;1.55;;;1.02;;
14060;SDS011;7105;43.616;1.434;2022-08-02T14:18:20;2.20;;;0.73;;
14060;SDS011;7105;43.616;1.434;2022-08-02T14:20:46;2.17;;;0.90;;
14060;SDS011;7105;43.616;1.434;2022-08-02T14:23:12;1.55;;;1.00;;
14060;SDS011;7105;43.616;1.434;2022-08-02T14:25:38;2.70;;;1.00;;
14060;SDS011;7105;43.616;1.434;2022-08-02T14:28:04;2.38;;;1.60;;
14060;SDS011;7105;43.616;1.434;2022-08-02T14:30:30;3.10;;;1.20;;
14060;SDS011;7105;43.616;1.434;2022-08-02T14:32:56;1.40;;;1.20;;
14060;SDS011;7105;43.616;1.434;2022-08-02T14:35:21;2.78;;;1.40;;
14060;SDS011;7105;43.616;1.434;2022-08-02T14:37:48;2.15;;;1.30;;
14060;SDS011;7105;43.616;1.434;2022-08-02T14:40:14;3.33;;;1.80;;
14060;SDS011;7105;43.616;1.434;2022-08-02T14:42:40;1.60;;;1.45;;
14060;SDS011;7105;43.616;1.434;2022-08-02T14:45:06;1.80;;;1.40;;
14060;SDS011;7105;43.616;1.434;2022-08-02T14:47:32;3.08;;;1.30;;
14060;SDS011;7105;43.616;1.434;2022-08-02T14:49:58;2.55;;;1.35;;
14060;SDS011;7105;43.616;1.434;2022-08-02T14:52:24;1.38;;;0.98;;
14060;SDS011;7105;43.616;1.434;2022-08-02T14:54:49;1.02;;;0.82;;
14060;SDS011;7105;43.616;1.434;2022-08-02T14:57:15;1.63;;;0.90;;
14060;SDS011;7105;43.616;1.434;2022-08-02T14:59:41;3.13;;;0.90;;
14060;SDS011;7105;43.616;1.434;2022-08-02T15:02:07;0.85;;;0.75;;
14060;SDS011;7105;43.616;1.434;2022-08-02T15:04:33;1.08;;;0.90;;
14060;SDS011;7105;43.616;1.434;2022-08-02T15:06:59;1.90;;;1.10;;
14060;SDS011;7105;43.616;1.434;2022-08-02T15:09:25;5.05;;;1.10;;
14060;SDS011;7105;43.616;1.434;2022-08-02T15:11:51;1.77;;;0.90;;
14060;SDS011;7105;43.616;1.434;2022-08-02T15:14:18;1.30;;;1.17;;
14060;SDS011;7105;43.616;1.434;2022-08-02T15:16:45;2.33;;;1.20;;
14060;SDS011;7105;43.616;1.434;2022-08-02T15:19:11;1.77;;;1.10;;
14060;SDS011;7105;43.616;1.434;2022-08-02T15:21:37;1.58;;;1.05;;
14060;SDS011;7105;43.616;1.434;2022-08-02T15:24:02;3.13;;;1.10;;
14060;SDS011;7105;43.616;1.434;2022-08-02T15:26:28;2.33;;;1.30;;
14060;SDS011;7105;43.616;1.434;2022-08-02T15:28:54;1.40;;;0.95;;
14060;SDS011;7105;43.616;1.434;2022-08-02T15:31:20;1.25;;;0.90;;
14060;SDS011;7105;43.616;1.434;2022-08-02T15:33:47;4.10;;;1.20;;
14060;SDS011;7105;43.616;1.434;2022-08-02T15:36:13;0.95;;;0.85;;
14060;SDS011;7105;43.616;1.434;2022-08-02T15:38:39;2.38;;;1.00;;
14060;SDS011;7105;43.616;1.434;2022-08-02T15:41:05;3.45;;;0.90;;
14060;SDS011;7105;43.616;1.434;2022-08-02T15:43:33;1.40;;;0.80;;
14060;SDS011;7105;43.616;1.434;2022-08-02T15:45:59;2.15;;;0.82;;
14060;SDS011;7105;43.616;1.434;2022-08-02T15:48:25;2.00;;;1.02;;